METAR AND TAF INFORMATION
METAR FOR EHWO
ADDS - METARS form results

(0738 UTC 25 January 2022)
Data provider http://aviationweather.gov/metar/data/
 
METAR text: EHWO 250732Z AUTO 10002KT 1500 BR OVC014 00/00 Q1034 AMB NOSIG
Conditions at: EHWO (WOENSDRECHT RNLA, NL) observed 0732 UTC 25 January 2022
Temperature: 0.0°C (32°F)
Dewpoint: 0.0°C (32°F) [RH = 100%]
Pressure (altimeter): 30.53 inches Hg (1034.0 mb)
Winds: from the E (100 degrees) at 2 MPH (2 knots; 1.0 m/s)
Visibility: 0.93 miles (1.50 km)
Ceiling: 1400 feet AGL
Clouds: overcast cloud deck at 1400 feet AGL
Weather: BR  (mist)

METAR text: EHWO 250725Z AUTO VRB02KT 1900 BR OVC014 00/M00 Q1034 YLO NOSIG
Conditions at: EHWO (WOENSDRECHT RNLA, NL) observed 0725 UTC 25 January 2022
Temperature: 0.0°C (32°F)
Dewpoint: 0.0°C (32°F) [RH = 100%]
Pressure (altimeter): 30.53 inches Hg (1034.0 mb)
Winds: variable direction winds at 2 MPH (2 knots; 1.0 m/s)
Visibility: 1.18 miles (1.90 km)
Ceiling: 1400 feet AGL
Clouds: overcast cloud deck at 1400 feet AGL
Weather: BR  (mist)

METAR text: EHWO 250655Z AUTO 07002KT 2400 BR OVC014 00/00 Q1033 YLO NOSIG
Conditions at: EHWO (WOENSDRECHT RNLA, NL) observed 0655 UTC 25 January 2022
Temperature: 0.0°C (32°F)
Dewpoint: 0.0°C (32°F) [RH = 100%]
Pressure (altimeter): 30.50 inches Hg (1033.0 mb)
Winds: from the ENE (70 degrees) at 2 MPH (2 knots; 1.0 m/s)
Visibility: 1.49 miles (2.40 km)
Ceiling: 1400 feet AGL
Clouds: overcast cloud deck at 1400 feet AGL
Weather: BR  (mist)

Forecast for: EHWO (WOENSDRECHT RNLA, NL)
Text: TAF EHWO 250503Z 2506/2518 VRB02KT 2500 BR OVC015
Forecast period: 0600 to 0800 UTC 25 January 2022
Forecast type: FROM: standard forecast or significant change
Winds: variable direction winds at 2 MPH (2 knots; 1.0 m/s)
Visibility: 1.55 miles (2.49 km)
Ceiling: 1500 feet AGL
Clouds: overcast cloud deck at 1500 feet AGL
Weather: BR  (mist)
Text: BECMG 2508/2511 6000 NSW OVC018
Forecast period: 0800 to 1800 UTC 25 January 2022
Forecast type: BECOMING: Conditions expected to become as follows by 1100 UTC 25 January 2022
Winds: variable direction winds at 2 MPH (2 knots; 1.0 m/s)
Visibility: 4 miles (6 km)
Ceiling: 1800 feet AGL
Clouds: overcast cloud deck at 1800 feet AGL
Weather: NSW  (no significant weather)

 AIRPORT MAP

 RUNWAY INFORMATION
Runway 07 Runway length 7996 ft Runway width 148 ft
Runway elevation 39 ft Runway displaced threshold 0 ft Runway heading 69
Runway 25 Runway length 7996 ft Runway width 148 ft
Runway elevation 63 ft Runway displaced threshold 0 ft Runway heading 249

 AIRPORT FREQUENCIES
Type APP Name RAPCON WES Frequency 123.575 MHZ
Type ARR Name ARRIVAL Frequency 123.575 MHZ
Type TWR Name TWR Frequency 118.5 MHZ

 AIRPORT NEAR NAVIGATION AIDS
Type TACAN Name Woensdrecht Frequency 115000 KHZ